sensor_id;sensor_type;location;lat;lon;timestamp;pressure;altitude;pressure_sealevel;temperature;humidity
75815;BME280;64451;45.574;14.224;2022-11-25T00:00:24;97049.09;;;0.92;98.91
75815;BME280;64451;45.574;14.224;2022-11-25T00:02:24;97046.34;;;0.98;99.19
75815;BME280;64451;45.574;14.224;2022-11-25T00:04:24;97043.34;;;0.95;99.16
75815;BME280;64451;45.574;14.224;2022-11-25T00:06:27;97053.81;;;1.08;98.66
75815;BME280;64451;45.574;14.224;2022-11-25T00:08:27;97052.09;;;1.13;98.28
75815;BME280;64451;45.574;14.224;2022-11-25T00:10:28;97055.13;;;0.99;98.07
75815;BME280;64451;45.574;14.224;2022-11-25T00:12:28;97067.19;;;0.95;98.69
75815;BME280;64451;45.574;14.224;2022-11-25T00:14:28;97061.69;;;0.96;98.80
75815;BME280;64451;45.574;14.224;2022-11-25T00:16:29;97066.53;;;0.99;98.44
75815;BME280;64451;45.574;14.224;2022-11-25T00:18:29;97070.81;;;1.00;98.23
75815;BME280;64451;45.574;14.224;2022-11-25T00:20:30;97063.28;;;0.97;98.50
75815;BME280;64451;45.574;14.224;2022-11-25T00:22:30;97073.81;;;0.67;99.05
75815;BME280;64451;45.574;14.224;2022-11-25T00:24:31;97065.66;;;0.69;99.96
75815;BME280;64451;45.574;14.224;2022-11-25T00:26:33;97057.66;;;0.75;99.85
75815;BME280;64451;45.574;14.224;2022-11-25T00:28:34;97065.25;;;0.65;100.00
75815;BME280;64451;45.574;14.224;2022-11-25T00:30:34;97068.81;;;0.77;100.00
75815;BME280;64451;45.574;14.224;2022-11-25T00:32:34;97069.41;;;0.79;100.00
75815;BME280;64451;45.574;14.224;2022-11-25T00:34:35;97059.19;;;0.83;100.00
75815;BME280;64451;45.574;14.224;2022-11-25T00:36:36;97059.13;;;1.08;99.76
75815;BME280;64451;45.574;14.224;2022-11-25T00:38:37;97068.94;;;0.64;99.31
75815;BME280;64451;45.574;14.224;2022-11-25T00:40:37;97071.31;;;0.91;99.69
75815;BME280;64451;45.574;14.224;2022-11-25T00:42:37;97070.66;;;0.95;98.86
75815;BME280;64451;45.574;14.224;2022-11-25T00:44:56;97072.28;;;0.96;97.90
75815;BME280;64451;45.574;14.224;2022-11-25T00:46:57;97074.47;;;0.99;97.63
75815;BME280;64451;45.574;14.224;2022-11-25T00:48:57;97091.50;;;1.10;97.12
75815;BME280;64451;45.574;14.224;2022-11-25T00:50:58;97089.88;;;1.09;96.71
75815;BME280;64451;45.574;14.224;2022-11-25T00:52:58;97091.13;;;1.06;97.10
75815;BME280;64451;45.574;14.224;2022-11-25T00:54:58;97086.25;;;0.85;97.04
75815;BME280;64451;45.574;14.224;2022-11-25T00:56:59;97089.66;;;0.92;97.83
75815;BME280;64451;45.574;14.224;2022-11-25T00:58:59;97090.16;;;1.19;96.93
75815;BME280;64451;45.574;14.224;2022-11-25T01:01:02;97078.88;;;1.24;95.86
75815;BME280;64451;45.574;14.224;2022-11-25T01:03:03;97087.13;;;1.34;95.58
75815;BME280;64451;45.574;14.224;2022-11-25T01:05:03;97091.25;;;1.30;95.58
75815;BME280;64451;45.574;14.224;2022-11-25T01:07:04;97086.41;;;1.08;95.93
75815;BME280;64451;45.574;14.224;2022-11-25T01:09:06;97093.03;;;0.99;96.62
75815;BME280;64451;45.574;14.224;2022-11-25T01:11:11;97095.16;;;0.72;97.90
75815;BME280;64451;45.574;14.224;2022-11-25T01:13:11;97094.63;;;0.64;99.20
75815;BME280;64451;45.574;14.224;2022-11-25T01:15:11;97098.38;;;0.74;99.20
75815;BME280;64451;45.574;14.224;2022-11-25T01:17:12;97101.31;;;0.66;99.39
75815;BME280;64451;45.574;14.224;2022-11-25T01:19:12;97106.69;;;0.60;99.62
75815;BME280;64451;45.574;14.224;2022-11-25T01:21:32;97113.06;;;0.52;99.82
75815;BME280;64451;45.574;14.224;2022-11-25T01:23:34;97109.31;;;0.84;100.00
75815;BME280;64451;45.574;14.224;2022-11-25T01:25:38;97105.91;;;0.96;98.92
75815;BME280;64451;45.574;14.224;2022-11-25T01:27:38;97117.53;;;0.95;98.00
75815;BME280;64451;45.574;14.224;2022-11-25T01:29:42;97113.63;;;0.97;97.07
75815;BME280;64451;45.574;14.224;2022-11-25T01:31:43;97106.28;;;0.99;96.88
75815;BME280;64451;45.574;14.224;2022-11-25T01:33:45;97113.94;;;0.89;97.45
75815;BME280;64451;45.574;14.224;2022-11-25T01:35:45;97103.84;;;0.79;98.18
75815;BME280;64451;45.574;14.224;2022-11-25T01:37:46;97117.94;;;0.73;98.44
75815;BME280;64451;45.574;14.224;2022-11-25T01:39:47;97107.78;;;0.52;98.91
75815;BME280;64451;45.574;14.224;2022-11-25T01:41:47;97110.97;;;0.61;99.01
75815;BME280;64451;45.574;14.224;2022-11-25T01:44:03;97109.34;;;0.60;98.90
75815;BME280;64451;45.574;14.224;2022-11-25T01:46:21;97107.66;;;0.40;99.38
75815;BME280;64451;45.574;14.224;2022-11-25T01:48:27;97104.16;;;0.46;99.98
75815;BME280;64451;45.574;14.224;2022-11-25T01:50:30;97103.63;;;0.38;99.84
75815;BME280;64451;45.574;14.224;2022-11-25T01:52:38;97101.13;;;0.43;99.58
75815;BME280;64451;45.574;14.224;2022-11-25T01:54:49;97102.22;;;0.35;99.36
75815;BME280;64451;45.574;14.224;2022-11-25T01:56:56;97116.75;;;0.51;99.35
75815;BME280;64451;45.574;14.224;2022-11-25T01:58:58;97108.41;;;0.47;99.73
75815;BME280;64451;45.574;14.224;2022-11-25T02:00:58;97109.84;;;0.50;99.48
75815;BME280;64451;45.574;14.224;2022-11-25T02:02:59;97112.41;;;0.32;99.89
75815;BME280;64451;45.574;14.224;2022-11-25T02:05:09;97117.16;;;0.48;99.75
75815;BME280;64451;45.574;14.224;2022-11-25T02:07:17;97109.16;;;0.54;99.89
75815;BME280;64451;45.574;14.224;2022-11-25T02:09:20;97116.00;;;0.87;99.27
75815;BME280;64451;45.574;14.224;2022-11-25T02:11:22;97108.56;;;0.96;98.19
75815;BME280;64451;45.574;14.224;2022-11-25T02:13:24;97113.72;;;1.09;96.79
75815;BME280;64451;45.574;14.224;2022-11-25T02:15:25;97104.66;;;0.98;96.27
75815;BME280;64451;45.574;14.224;2022-11-25T02:17:27;97104.88;;;0.97;96.87
75815;BME280;64451;45.574;14.224;2022-11-25T02:21:44;97095.78;;;0.93;96.67
75815;BME280;64451;45.574;14.224;2022-11-25T02:24:00;97090.75;;;0.84;97.26
75815;BME280;64451;45.574;14.224;2022-11-25T02:26:03;97087.38;;;0.77;97.42
75815;BME280;64451;45.574;14.224;2022-11-25T02:28:12;97087.19;;;0.72;97.80
75815;BME280;64451;45.574;14.224;2022-11-25T02:30:13;97088.00;;;0.73;97.88
75815;BME280;64451;45.574;14.224;2022-11-25T02:32:13;97084.13;;;0.75;98.12
75815;BME280;64451;45.574;14.224;2022-11-25T02:34:14;97091.91;;;0.70;98.11
75815;BME280;64451;45.574;14.224;2022-11-25T02:36:19;97092.19;;;0.62;98.26
75815;BME280;64451;45.574;14.224;2022-11-25T02:38:23;97099.28;;;0.87;98.21
75815;BME280;64451;45.574;14.224;2022-11-25T02:40:26;97108.03;;;1.05;97.81
75815;BME280;64451;45.574;14.224;2022-11-25T02:42:27;97104.75;;;0.92;96.42
75815;BME280;64451;45.574;14.224;2022-11-25T02:44:29;97104.06;;;0.78;96.52
75815;BME280;64451;45.574;14.224;2022-11-25T02:46:29;97102.38;;;0.83;96.43
75815;BME280;64451;45.574;14.224;2022-11-25T02:48:32;97103.72;;;0.93;96.51
75815;BME280;64451;45.574;14.224;2022-11-25T02:50:33;97110.75;;;0.80;96.27
75815;BME280;64451;45.574;14.224;2022-11-25T02:52:33;97102.66;;;0.75;96.76
75815;BME280;64451;45.574;14.224;2022-11-25T02:54:33;97111.28;;;0.89;96.99
75815;BME280;64451;45.574;14.224;2022-11-25T02:56:35;97105.91;;;0.96;96.71
75815;BME280;64451;45.574;14.224;2022-11-25T02:58:36;97106.94;;;0.95;96.30
75815;BME280;64451;45.574;14.224;2022-11-25T03:00:36;97097.16;;;0.95;96.09
75815;BME280;64451;45.574;14.224;2022-11-25T03:02:36;97099.00;;;0.95;96.47
75815;BME280;64451;45.574;14.224;2022-11-25T03:04:38;97095.47;;;1.01;95.80
75815;BME280;64451;45.574;14.224;2022-11-25T03:06:39;97101.72;;;1.06;96.14
75815;BME280;64451;45.574;14.224;2022-11-25T03:08:39;97111.47;;;0.51;97.45
75815;BME280;64451;45.574;14.224;2022-11-25T03:10:39;97106.47;;;0.61;98.70
75815;BME280;64451;45.574;14.224;2022-11-25T03:12:40;97106.81;;;0.65;98.58
75815;BME280;64451;45.574;14.224;2022-11-25T03:14:41;97114.28;;;0.49;98.48
75815;BME280;64451;45.574;14.224;2022-11-25T03:16:41;97117.34;;;0.53;98.07
75815;BME280;64451;45.574;14.224;2022-11-25T03:18:42;97123.19;;;0.37;97.96
75815;BME280;64451;45.574;14.224;2022-11-25T03:20:42;97125.66;;;0.56;97.83
75815;BME280;64451;45.574;14.224;2022-11-25T03:22:43;97134.22;;;0.34;98.23
75815;BME280;64451;45.574;14.224;2022-11-25T03:24:43;97124.75;;;0.19;98.88
75815;BME280;64451;45.574;14.224;2022-11-25T03:26:44;97125.09;;;0.23;98.73
75815;BME280;64451;45.574;14.224;2022-11-25T03:28:44;97125.72;;;0.25;98.66
75815;BME280;64451;45.574;14.224;2022-11-25T03:30:44;97123.00;;;0.32;98.76
75815;BME280;64451;45.574;14.224;2022-11-25T03:32:45;97118.97;;;0.72;97.92
75815;BME280;64451;45.574;14.224;2022-11-25T03:34:45;97116.09;;;0.74;97.09
75815;BME280;64451;45.574;14.224;2022-11-25T03:36:46;97122.66;;;0.71;97.08
75815;BME280;64451;45.574;14.224;2022-11-25T03:38:46;97119.22;;;0.71;97.01
75815;BME280;64451;45.574;14.224;2022-11-25T03:40:46;97120.47;;;0.68;96.57
75815;BME280;64451;45.574;14.224;2022-11-25T03:42:47;97113.97;;;0.64;96.62
75815;BME280;64451;45.574;14.224;2022-11-25T03:44:47;97115.31;;;0.48;97.19
75815;BME280;64451;45.574;14.224;2022-11-25T03:46:47;97104.16;;;0.46;97.64
75815;BME280;64451;45.574;14.224;2022-11-25T03:48:48;97120.78;;;0.53;98.09
75815;BME280;64451;45.574;14.224;2022-11-25T03:50:48;97129.19;;;0.25;97.47
75815;BME280;64451;45.574;14.224;2022-11-25T03:52:48;97130.00;;;0.26;98.67
75815;BME280;64451;45.574;14.224;2022-11-25T03:54:49;97128.38;;;0.25;98.54
75815;BME280;64451;45.574;14.224;2022-11-25T03:56:49;97134.72;;;0.17;98.40
75815;BME280;64451;45.574;14.224;2022-11-25T03:58:50;97140.69;;;0.06;98.58
75815;BME280;64451;45.574;14.224;2022-11-25T04:00:50;97131.88;;;0.19;99.16
75815;BME280;64451;45.574;14.224;2022-11-25T04:02:50;97137.19;;;0.12;99.44
75815;BME280;64451;45.574;14.224;2022-11-25T04:04:51;97138.94;;;0.00;99.51
75815;BME280;64451;45.574;14.224;2022-11-25T04:06:51;97121.97;;;0.33;98.87
75815;BME280;64451;45.574;14.224;2022-11-25T04:08:52;97117.38;;;0.21;98.62
75815;BME280;64451;45.574;14.224;2022-11-25T04:10:52;97122.41;;;0.30;98.32
75815;BME280;64451;45.574;14.224;2022-11-25T04:12:53;97109.53;;;0.33;97.66
75815;BME280;64451;45.574;14.224;2022-11-25T04:14:53;97111.47;;;0.26;97.91
75815;BME280;64451;45.574;14.224;2022-11-25T04:16:54;97109.50;;;0.15;98.35
75815;BME280;64451;45.574;14.224;2022-11-25T04:18:54;97106.81;;;-0.10;98.94
75815;BME280;64451;45.574;14.224;2022-11-25T04:20:55;97113.94;;;-0.11;99.71
75815;BME280;64451;45.574;14.224;2022-11-25T04:22:55;97116.50;;;-0.29;99.87
75815;BME280;64451;45.574;14.224;2022-11-25T04:24:55;97115.25;;;-0.26;100.00
75815;BME280;64451;45.574;14.224;2022-11-25T04:26:56;97128.09;;;-0.30;100.00
75815;BME280;64451;45.574;14.224;2022-11-25T04:28:56;97131.56;;;-0.30;100.00
75815;BME280;64451;45.574;14.224;2022-11-25T04:30:56;97135.56;;;-0.20;100.00
75815;BME280;64451;45.574;14.224;2022-11-25T04:32:57;97135.47;;;-0.39;100.00
75815;BME280;64451;45.574;14.224;2022-11-25T04:34:57;97135.53;;;-0.14;100.00
75815;BME280;64451;45.574;14.224;2022-11-25T04:36:57;97130.56;;;0.03;100.00
75815;BME280;64451;45.574;14.224;2022-11-25T04:49:49;97149.84;;;0.10;98.47
75815;BME280;64451;45.574;14.224;2022-11-25T04:51:49;97158.75;;;-0.16;98.72
75815;BME280;64451;45.574;14.224;2022-11-25T04:53:49;97165.19;;;-0.05;98.87
75815;BME280;64451;45.574;14.224;2022-11-25T04:55:50;97179.59;;;-0.01;99.15
75815;BME280;64451;45.574;14.224;2022-11-25T04:57:50;97173.38;;;-0.13;98.70
75815;BME280;64451;45.574;14.224;2022-11-25T04:59:50;97187.75;;;-0.03;98.84
75815;BME280;64451;45.574;14.224;2022-11-25T05:19:12;97185.72;;;-0.39;98.23
75815;BME280;64451;45.574;14.224;2022-11-25T05:21:12;97178.22;;;-0.10;98.19
75815;BME280;64451;45.574;14.224;2022-11-25T05:23:13;97168.53;;;-0.16;97.48
75815;BME280;64451;45.574;14.224;2022-11-25T05:25:13;97178.66;;;-0.13;97.08
75815;BME280;64451;45.574;14.224;2022-11-25T05:27:16;97185.16;;;-0.61;98.95
75815;BME280;64451;45.574;14.224;2022-11-25T05:29:17;97172.03;;;-0.74;100.00
75815;BME280;64451;45.574;14.224;2022-11-25T05:31:17;97173.81;;;-0.68;100.00
75815;BME280;64451;45.574;14.224;2022-11-25T05:33:17;97178.91;;;-0.73;100.00
75815;BME280;64451;45.574;14.224;2022-11-25T05:35:18;97174.44;;;-0.66;100.00
75815;BME280;64451;45.574;14.224;2022-11-25T05:37:19;97180.94;;;-0.68;100.00
75815;BME280;64451;45.574;14.224;2022-11-25T05:39:22;97189.06;;;-0.63;100.00
75815;BME280;64451;45.574;14.224;2022-11-25T05:41:23;97197.00;;;-0.70;100.00
75815;BME280;64451;45.574;14.224;2022-11-25T05:43:23;97202.69;;;-0.66;100.00
75815;BME280;64451;45.574;14.224;2022-11-25T05:45:24;97217.31;;;-0.57;100.00
75815;BME280;64451;45.574;14.224;2022-11-25T05:47:24;97221.50;;;-0.43;100.00
75815;BME280;64451;45.574;14.224;2022-11-25T05:49:24;97228.63;;;-0.50;100.00
75815;BME280;64451;45.574;14.224;2022-11-25T05:51:25;97216.19;;;-0.30;100.00
75815;BME280;64451;45.574;14.224;2022-11-25T05:53:28;97213.06;;;-0.13;100.00
75815;BME280;64451;45.574;14.224;2022-11-25T05:55:28;97226.38;;;0.05;99.04
75815;BME280;64451;45.574;14.224;2022-11-25T05:57:30;97224.66;;;-0.14;98.58
75815;BME280;64451;45.574;14.224;2022-11-25T05:59:30;97220.59;;;-0.17;98.98
75815;BME280;64451;45.574;14.224;2022-11-25T06:01:31;97219.91;;;0.01;99.13
75815;BME280;64451;45.574;14.224;2022-11-25T06:10:03;97218.78;;;-0.16;99.38
75815;BME280;64451;45.574;14.224;2022-11-25T06:12:03;97218.56;;;-0.15;99.72
75815;BME280;64451;45.574;14.224;2022-11-25T06:14:03;97221.44;;;0.15;99.31
75815;BME280;64451;45.574;14.224;2022-11-25T06:16:12;97221.44;;;0.15;98.47
75815;BME280;64451;45.574;14.224;2022-11-25T06:18:15;97220.78;;;0.26;97.56
75815;BME280;64451;45.574;14.224;2022-11-25T06:20:16;97225.38;;;0.06;98.47
75815;BME280;64451;45.574;14.224;2022-11-25T06:22:16;97214.41;;;0.03;99.19
75815;BME280;64451;45.574;14.224;2022-11-25T06:24:16;97221.50;;;0.09;99.04
75815;BME280;64451;45.574;14.224;2022-11-25T06:26:21;97222.41;;;0.27;98.61
75815;BME280;64451;45.574;14.224;2022-11-25T06:28:21;97215.13;;;0.16;98.16
75815;BME280;64451;45.574;14.224;2022-11-25T06:30:21;97218.63;;;0.10;98.87
75815;BME280;64451;45.574;14.224;2022-11-25T06:32:22;97224.41;;;0.32;98.17
75815;BME280;64451;45.574;14.224;2022-11-25T06:34:22;97223.91;;;0.17;97.92
75815;BME280;64451;45.574;14.224;2022-11-25T06:36:22;97225.16;;;0.08;98.53
75815;BME280;64451;45.574;14.224;2022-11-25T06:38:25;97226.13;;;0.20;98.52
75815;BME280;64451;45.574;14.224;2022-11-25T06:40:25;97230.94;;;-0.09;98.46
75815;BME280;64451;45.574;14.224;2022-11-25T06:42:26;97239.94;;;-0.16;99.06
75815;BME280;64451;45.574;14.224;2022-11-25T06:44:26;97238.63;;;-0.01;99.79
75815;BME280;64451;45.574;14.224;2022-11-25T06:46:26;97247.56;;;0.05;99.61
75815;BME280;64451;45.574;14.224;2022-11-25T06:48:27;97245.69;;;0.12;99.21
75815;BME280;64451;45.574;14.224;2022-11-25T06:50:27;97241.50;;;0.36;98.60
75815;BME280;64451;45.574;14.224;2022-11-25T06:52:29;97242.84;;;0.45;98.20
75815;BME280;64451;45.574;14.224;2022-11-25T06:54:30;97244.94;;;0.68;97.51
75815;BME280;64451;45.574;14.224;2022-11-25T06:56:31;97254.19;;;0.59;96.20
75815;BME280;64451;45.574;14.224;2022-11-25T06:58:31;97262.13;;;0.59;95.93
75815;BME280;64451;45.574;14.224;2022-11-25T07:00:32;97263.19;;;0.51;96.16
75815;BME280;64451;45.574;14.224;2022-11-25T07:02:32;97258.16;;;0.43;96.01
75815;BME280;64451;45.574;14.224;2022-11-25T07:04:33;97262.44;;;0.38;96.28
75815;BME280;64451;45.574;14.224;2022-11-25T07:06:34;97264.75;;;0.27;96.51
75815;BME280;64451;45.574;14.224;2022-11-25T07:08:34;97278.44;;;0.18;96.66
75815;BME280;64451;45.574;14.224;2022-11-25T07:10:35;97275.75;;;0.24;96.49
75815;BME280;64451;45.574;14.224;2022-11-25T07:12:35;97282.03;;;0.30;96.26
75815;BME280;64451;45.574;14.224;2022-11-25T07:14:35;97283.41;;;0.39;96.22
75815;BME280;64451;45.574;14.224;2022-11-25T07:16:38;97288.53;;;0.34;96.12
75815;BME280;64451;45.574;14.224;2022-11-25T07:18:39;97277.41;;;0.25;95.66
75815;BME280;64451;45.574;14.224;2022-11-25T07:20:40;97272.16;;;0.12;96.51
75815;BME280;64451;45.574;14.224;2022-11-25T07:22:43;97277.13;;;-0.11;97.12
75815;BME280;64451;45.574;14.224;2022-11-25T07:24:43;97270.78;;;0.03;97.92
75815;BME280;64451;45.574;14.224;2022-11-25T07:26:44;97274.59;;;0.07;97.49
75815;BME280;64451;45.574;14.224;2022-11-25T07:28:45;97268.66;;;0.18;97.64
75815;BME280;64451;45.574;14.224;2022-11-25T07:30:45;97274.59;;;0.14;97.42
75815;BME280;64451;45.574;14.224;2022-11-25T07:32:46;97270.78;;;0.03;98.00
75815;BME280;64451;45.574;14.224;2022-11-25T07:34:49;97269.94;;;0.09;97.86
75815;BME280;64451;45.574;14.224;2022-11-25T07:36:50;97273.41;;;0.03;97.50
75815;BME280;64451;45.574;14.224;2022-11-25T07:38:50;97271.22;;;-0.07;98.49
75815;BME280;64451;45.574;14.224;2022-11-25T07:40:51;97278.22;;;0.19;97.88
75815;BME280;64451;45.574;14.224;2022-11-25T07:42:51;97270.56;;;0.05;97.86
75815;BME280;64451;45.574;14.224;2022-11-25T07:57:50;97250.44;;;-0.03;99.59
75815;BME280;64451;45.574;14.224;2022-11-25T07:59:51;97257.13;;;0.06;98.85
75815;BME280;64451;45.574;14.224;2022-11-25T08:01:53;97259.50;;;0.14;98.91
75815;BME280;64451;45.574;14.224;2022-11-25T08:03:57;97260.84;;;0.30;98.28
75815;BME280;64451;45.574;14.224;2022-11-25T08:06:01;97257.97;;;0.38;98.44
75815;BME280;64451;45.574;14.224;2022-11-25T08:08:02;97254.63;;;0.49;98.14
75815;BME280;64451;45.574;14.224;2022-11-25T08:10:03;97253.84;;;0.74;97.40
75815;BME280;64451;45.574;14.224;2022-11-25T08:12:03;97261.19;;;0.72;97.20
75815;BME280;64451;45.574;14.224;2022-11-25T08:14:05;97266.53;;;0.65;97.95
75815;BME280;64451;45.574;14.224;2022-11-25T08:16:07;97272.25;;;0.94;97.23
75815;BME280;64451;45.574;14.224;2022-11-25T08:18:07;97270.50;;;0.81;96.73
75815;BME280;64451;45.574;14.224;2022-11-25T08:20:08;97264.72;;;0.91;96.87
75815;BME280;64451;45.574;14.224;2022-11-25T08:22:08;97274.66;;;0.70;97.27
75815;BME280;64451;45.574;14.224;2022-11-25T08:24:16;97267.53;;;0.96;97.74
75815;BME280;64451;45.574;14.224;2022-11-25T08:26:29;97271.50;;;1.11;96.80
75815;BME280;64451;45.574;14.224;2022-11-25T08:28:29;97276.69;;;1.25;97.13
75815;BME280;64451;45.574;14.224;2022-11-25T08:30:30;97267.75;;;1.19;97.17
75815;BME280;64451;45.574;14.224;2022-11-25T08:32:30;97274.19;;;1.48;96.48
75815;BME280;64451;45.574;14.224;2022-11-25T08:34:31;97266.56;;;1.58;93.83
75815;BME280;64451;45.574;14.224;2022-11-25T08:36:33;97281.78;;;1.45;93.43
75815;BME280;64451;45.574;14.224;2022-11-25T08:38:34;97267.50;;;1.64;94.39
75815;BME280;64451;45.574;14.224;2022-11-25T08:40:35;97272.69;;;1.59;95.92
75815;BME280;64451;45.574;14.224;2022-11-25T08:42:37;97270.31;;;1.87;94.35
75815;BME280;64451;45.574;14.224;2022-11-25T08:44:37;97266.41;;;1.72;95.38
75815;BME280;64451;45.574;14.224;2022-11-25T08:46:38;97283.44;;;2.01;95.21
75815;BME280;64451;45.574;14.224;2022-11-25T08:48:39;97281.97;;;1.68;94.25
75815;BME280;64451;45.574;14.224;2022-11-25T08:50:45;97277.19;;;1.77;94.50
75815;BME280;64451;45.574;14.224;2022-11-25T08:52:45;97278.25;;;2.06;92.84
75815;BME280;64451;45.574;14.224;2022-11-25T08:54:46;97293.13;;;2.43;91.38
75815;BME280;64451;45.574;14.224;2022-11-25T08:56:46;97277.41;;;2.42;91.09
75815;BME280;64451;45.574;14.224;2022-11-25T08:58:47;97272.91;;;2.96;89.52
75815;BME280;64451;45.574;14.224;2022-11-25T09:00:48;97262.63;;;2.88;90.05
75815;BME280;64451;45.574;14.224;2022-11-25T09:02:49;97268.63;;;2.83;89.63
75815;BME280;64451;45.574;14.224;2022-11-25T09:04:49;97263.47;;;3.12;88.18
75815;BME280;64451;45.574;14.224;2022-11-25T09:06:49;97261.75;;;3.17;87.98
75815;BME280;64451;45.574;14.224;2022-11-25T09:08:52;97255.03;;;3.26;89.30
75815;BME280;64451;45.574;14.224;2022-11-25T09:10:53;97255.59;;;2.81;92.01
75815;BME280;64451;45.574;14.224;2022-11-25T09:12:53;97255.94;;;2.85;91.54
75815;BME280;64451;45.574;14.224;2022-11-25T09:14:54;97248.44;;;3.17;89.54
75815;BME280;64451;45.574;14.224;2022-11-25T09:16:54;97251.31;;;2.92;90.30
75815;BME280;64451;45.574;14.224;2022-11-25T09:18:56;97243.44;;;2.97;90.07
75815;BME280;64451;45.574;14.224;2022-11-25T09:20:57;97240.81;;;3.21;88.79
75815;BME280;64451;45.574;14.224;2022-11-25T09:22:58;97253.66;;;3.00;91.36
75815;BME280;64451;45.574;14.224;2022-11-25T09:24:59;97243.00;;;3.00;90.84
75815;BME280;64451;45.574;14.224;2022-11-25T09:26:59;97240.91;;;3.37;88.35
75815;BME280;64451;45.574;14.224;2022-11-25T09:29:00;97246.94;;;3.09;89.92
75815;BME280;64451;45.574;14.224;2022-11-25T09:31:08;97242.53;;;3.38;89.14
75815;BME280;64451;45.574;14.224;2022-11-25T09:33:08;97242.19;;;3.58;87.97
75815;BME280;64451;45.574;14.224;2022-11-25T09:35:08;97248.91;;;3.73;87.67
75815;BME280;64451;45.574;14.224;2022-11-25T09:37:10;97246.09;;;3.79;87.21
75815;BME280;64451;45.574;14.224;2022-11-25T09:39:10;97241.38;;;4.10;86.64
75815;BME280;64451;45.574;14.224;2022-11-25T09:46:10;97243.16;;;3.92;88.03
75815;BME280;64451;45.574;14.224;2022-11-25T09:48:40;97237.91;;;3.57;90.73
75815;BME280;64451;45.574;14.224;2022-11-25T09:51:06;97239.41;;;3.65;91.25
75815;BME280;64451;45.574;14.224;2022-11-25T09:53:15;97241.28;;;3.64;92.03
75815;BME280;64451;45.574;14.224;2022-11-25T09:55:24;97237.88;;;3.69;89.92
75815;BME280;64451;45.574;14.224;2022-11-25T09:59:53;97237.72;;;3.99;90.87
75815;BME280;64451;45.574;14.224;2022-11-25T10:02:11;97238.78;;;4.55;90.28
75815;BME280;64451;45.574;14.224;2022-11-25T10:04:33;97242.69;;;4.98;89.20
75815;BME280;64451;45.574;14.224;2022-11-25T10:06:40;97242.28;;;4.89;87.66
75815;BME280;64451;45.574;14.224;2022-11-25T10:08:45;97235.41;;;4.93;85.73
75815;BME280;64451;45.574;14.224;2022-11-25T10:10:51;97232.69;;;5.05;86.54
75815;BME280;64451;45.574;14.224;2022-11-25T10:12:54;97239.78;;;5.16;86.14
75815;BME280;64451;45.574;14.224;2022-11-25T10:15:20;97236.19;;;5.44;86.47
75815;BME280;64451;45.574;14.224;2022-11-25T10:17:39;97232.38;;;5.57;84.76
75815;BME280;64451;45.574;14.224;2022-11-25T10:22:32;97232.06;;;5.75;84.47
75815;BME280;64451;45.574;14.224;2022-11-25T10:24:31;97231.19;;;6.08;83.85
75815;BME280;64451;45.574;14.224;2022-11-25T10:26:36;97224.09;;;6.19;83.37
75815;BME280;64451;45.574;14.224;2022-11-25T10:28:53;97218.81;;;6.24;81.70
75815;BME280;64451;45.574;14.224;2022-11-25T10:31:03;97218.47;;;6.42;80.54
75815;BME280;64451;45.574;14.224;2022-11-25T10:33:18;97215.53;;;6.71;79.99
75815;BME280;64451;45.574;14.224;2022-11-25T10:35:37;97204.31;;;6.74;80.44
75815;BME280;64451;45.574;14.224;2022-11-25T10:37:41;97197.09;;;6.74;79.84
75815;BME280;64451;45.574;14.224;2022-11-25T10:39:44;97191.25;;;6.78;80.61
75815;BME280;64451;45.574;14.224;2022-11-25T10:42:05;97187.16;;;7.02;79.57
75815;BME280;64451;45.574;14.224;2022-11-25T10:44:22;97181.16;;;7.22;79.07
75815;BME280;64451;45.574;14.224;2022-11-25T10:51:28;97178.19;;;6.81;85.15
75815;BME280;64451;45.574;14.224;2022-11-25T10:53:30;97184.75;;;7.00;83.06
75815;BME280;64451;45.574;14.224;2022-11-25T10:55:32;97194.81;;;6.88;82.59
75815;BME280;64451;45.574;14.224;2022-11-25T10:57:33;97193.31;;;7.02;81.91
75815;BME280;64451;45.574;14.224;2022-11-25T10:59:38;97190.22;;;7.16;79.53
75815;BME280;64451;45.574;14.224;2022-11-25T11:01:38;97181.31;;;7.47;79.53
75815;BME280;64451;45.574;14.224;2022-11-25T11:05:51;97173.25;;;8.10;73.86
75815;BME280;64451;45.574;14.224;2022-11-25T11:10:15;97167.66;;;8.11;74.88
75815;BME280;64451;45.574;14.224;2022-11-25T11:14:28;97169.78;;;8.14;75.04
75815;BME280;64451;45.574;14.224;2022-11-25T11:16:55;97161.25;;;8.28;73.44
75815;BME280;64451;45.574;14.224;2022-11-25T11:18:56;97165.00;;;8.32;75.08
75815;BME280;64451;45.574;14.224;2022-11-25T11:20:58;97159.44;;;8.54;75.62
75815;BME280;64451;45.574;14.224;2022-11-25T11:23:11;97153.56;;;8.77;75.08
75815;BME280;64451;45.574;14.224;2022-11-25T11:27:24;97143.59;;;8.98;73.79
75815;BME280;64451;45.574;14.224;2022-11-25T11:29:24;97149.75;;;9.24;73.86
75815;BME280;64451;45.574;14.224;2022-11-25T11:31:35;97154.03;;;9.35;72.44
75815;BME280;64451;45.574;14.224;2022-11-25T11:33:51;97147.78;;;9.50;72.60
75815;BME280;64451;45.574;14.224;2022-11-25T11:38:34;97132.22;;;9.52;74.04
75815;BME280;64451;45.574;14.224;2022-11-25T11:40:42;97135.72;;;10.12;71.34
75815;BME280;64451;45.574;14.224;2022-11-25T11:49:46;97131.31;;;10.71;71.18
75815;BME280;64451;45.574;14.224;2022-11-25T11:54:17;97119.28;;;10.92;70.03
75815;BME280;64451;45.574;14.224;2022-11-25T11:56:41;97126.94;;;10.80;70.93
75815;BME280;64451;45.574;14.224;2022-11-25T12:03:38;97121.28;;;10.42;72.56
75815;BME280;64451;45.574;14.224;2022-11-25T12:05:40;97123.19;;;10.76;71.02
75815;BME280;64451;45.574;14.224;2022-11-25T12:07:59;97125.16;;;10.65;72.44
75815;BME280;64451;45.574;14.224;2022-11-25T12:12:16;97119.66;;;10.80;70.44
75815;BME280;64451;45.574;14.224;2022-11-25T12:14:31;97125.63;;;10.77;71.52
75815;BME280;64451;45.574;14.224;2022-11-25T12:16:38;97129.38;;;10.42;71.25
75815;BME280;64451;45.574;14.224;2022-11-25T12:18:53;97134.00;;;11.05;70.06
75815;BME280;64451;45.574;14.224;2022-11-25T12:23:20;97117.09;;;11.23;68.73